Time;durP1;ratioP1;P1;durP2;ratioP2;P2;SDS_P1;SDS_P2;PMS_P1;PMS_P2;Temp;Humidity;BMP_temperature;BMP_pressure;BME280_temperature;BME280_humidity;BME280_pressure;Samples;Min_cycle;Max_cycle;Signal;HPM_P1;HPM_P2
2022/04/24 00:01:14;;;;;;;;;8.50;6.75;;;;;-146.67;100.00;57155.34;5099996;27;64111;-84
2022/04/24 00:03:39;;;;;;;;;9.50;8.50;;;;;-146.67;100.00;57155.34;5084413;28;61961;-84
2022/04/24 00:06:04;;;;;;;;;12.25;9.00;;;;;-146.67;100.00;57155.34;5100195;27;62025;-84
2022/04/24 00:08:30;;;;;;;;;8.25;8.25;;;;;-146.67;100.00;57155.34;5083939;28;62125;-84
2022/04/24 00:10:56;;;;;;;;;11.75;9.00;;;;;-146.67;100.00;57155.34;5099767;27;64931;-84
2022/04/24 00:13:23;;;;;;;;;16.50;14.00;;;;;-146.67;100.00;57155.34;5084576;28;61985;-84
2022/04/24 00:15:48;;;;;;;;;21.00;16.25;;;;;-146.67;100.00;57155.34;5084651;28;62214;-84
2022/04/24 00:18:14;;;;;;;;;16.50;11.00;;;;;-146.67;100.00;57155.34;5100212;27;62039;-83
2022/04/24 00:20:39;;;;;;;;;18.75;14.75;;;;;-146.67;100.00;57155.34;5082134;28;63761;-84
2022/04/24 00:23:05;;;;;;;;;12.25;10.75;;;;;-146.67;100.00;57155.34;5084303;28;61991;-84
2022/04/24 00:25:30;;;;;;;;;14.50;10.00;;;;;-146.67;100.00;57155.34;5099890;27;61753;-84
2022/04/24 00:27:55;;;;;;;;;10.75;8.50;;;;;-146.67;100.00;57155.34;5100251;27;61777;-84
2022/04/24 00:30:21;;;;;;;;;9.00;8.25;;;;;-146.67;100.00;57155.34;5083743;28;61762;-84
2022/04/24 00:32:46;;;;;;;;;11.75;9.00;;;;;-146.67;100.00;57155.34;5099792;27;61984;-84
2022/04/24 00:35:12;;;;;;;;;10.00;9.75;;;;;-146.67;100.00;57155.34;5084072;28;62103;-84
2022/04/24 00:37:37;;;;;;;;;13.50;7.75;;;;;-146.67;100.00;57155.34;5083878;28;62416;-84
2022/04/24 00:40:03;;;;;;;;;11.75;9.25;;;;;-146.67;100.00;57155.34;5083415;28;62724;-84
2022/04/24 00:42:29;;;;;;;;;13.00;8.50;;;;;-146.67;100.00;57155.34;5099809;27;61950;-84
2022/04/24 00:44:55;;;;;;;;;10.25;8.75;;;;;-146.67;100.00;57155.34;5084030;28;61794;-84
2022/04/24 00:47:23;;;;;;;;;9.25;8.00;;;;;-146.67;100.00;57155.34;5100302;27;62222;-84
2022/04/24 00:49:50;;;;;;;;;9.50;8.25;;;;;-146.67;100.00;57155.34;5098720;27;64772;-84
2022/04/24 00:52:16;;;;;;;;;6.00;6.00;;;;;-146.67;100.00;57155.34;5099520;27;62147;-84
2022/04/24 00:54:41;;;;;;;;;14.00;7.75;;;;;-146.67;100.00;57155.34;5083707;28;61875;-84
2022/04/24 00:57:08;;;;;;;;;9.25;8.25;;;;;-146.67;100.00;57155.34;5083139;28;62053;-84
2022/04/24 00:59:34;;;;;;;;;9.50;6.75;;;;;-146.67;100.00;57155.34;5081265;28;64979;-84
2022/04/24 01:02:05;;;;;;;;;16.75;7.00;;;;;-146.67;100.00;57155.34;5099477;27;62254;-84
2022/04/24 01:04:34;;;;;;;;;10.00;9.25;;;;;-146.67;100.00;57155.34;5099415;27;61858;-84
2022/04/24 01:06:59;;;;;;;;;9.75;9.00;;;;;-146.67;100.00;57155.34;5099205;27;62569;-84
2022/04/24 01:09:26;;;;;;;;;10.00;9.00;;;;;-146.67;100.00;57155.34;5082764;28;62121;-83
2022/04/24 01:11:56;;;;;;;;;8.50;7.00;;;;;-146.67;100.00;57155.34;5082173;28;62006;-84
2022/04/24 01:14:25;;;;;;;;;10.50;8.25;;;;;-146.67;100.00;57155.34;5083747;28;61779;-84
2022/04/24 01:16:51;;;;;;;;;8.00;8.00;;;;;-146.67;100.00;57155.34;5082093;27;61881;-84
2022/04/24 01:19:17;;;;;;;;;11.00;9.25;;;;;-146.67;100.00;57155.34;5082816;28;62192;-84
2022/04/24 01:21:44;;;;;;;;;6.75;6.25;;;;;-146.67;100.00;57155.34;5083201;28;61711;-84
2022/04/24 01:24:10;;;;;;;;;8.50;6.75;;;;;-146.67;100.00;57155.34;5083532;28;62126;-83
2022/04/24 01:26:36;;;;;;;;;7.75;7.75;;;;;-146.67;100.00;57155.34;5099162;27;61903;-84
2022/04/24 01:29:04;;;;;;;;;9.50;8.00;;;;;-146.67;100.00;57155.34;5081544;28;63554;-84
2022/04/24 01:31:31;;;;;;;;;10.25;7.50;;;;;-146.67;100.00;57155.34;5083549;28;61895;-84
2022/04/24 01:33:56;;;;;;;;;10.00;9.00;;;;;-146.67;100.00;57155.34;5083116;28;62221;-84
2022/04/24 01:36:22;;;;;;;;;9.00;6.50;;;;;-146.67;100.00;57155.34;5082959;28;61758;-84
2022/04/24 01:38:47;;;;;;;;;9.00;8.50;;;;;-146.67;100.00;57155.34;5082100;28;62847;-84
2022/04/24 01:41:13;;;;;;;;;8.25;5.00;;;;;-146.67;100.00;57155.34;5083305;28;61981;-84
2022/04/24 01:43:38;;;;;;;;;8.00;5.25;;;;;-146.67;100.00;57155.34;5083079;28;61822;-84
2022/04/24 01:46:05;;;;;;;;;9.50;5.50;;;;;-146.67;100.00;57155.34;5083290;28;61717;-84
2022/04/24 01:48:34;;;;;;;;;9.50;7.00;;;;;-146.67;100.00;57155.34;5098133;27;63790;-84
2022/04/24 01:51:01;;;;;;;;;5.75;5.75;;;;;-146.67;100.00;57155.34;5082528;27;61910;-84
2022/04/24 01:53:28;;;;;;;;;7.75;7.75;;;;;-146.67;100.00;57155.34;5098911;27;61906;-84
2022/04/24 01:55:55;;;;;;;;;8.50;6.00;;;;;-146.67;100.00;57155.34;5082847;28;61771;-84
2022/04/24 01:58:20;;;;;;;;;6.00;6.00;;;;;-146.67;100.00;57155.34;5082000;28;61745;-83
2022/04/24 02:00:45;;;;;;;;;7.25;6.00;;;;;-146.67;100.00;57155.34;5098368;27;61983;-84
2022/04/24 02:03:11;;;;;;;;;6.75;6.75;;;;;-146.67;100.00;57155.34;5098631;27;61800;-84
2022/04/24 02:05:36;;;;;;;;;9.50;8.00;;;;;-146.67;100.00;57155.34;5082626;28;62147;-85
2022/04/24 02:08:02;;;;;;;;;10.00;6.00;;;;;-146.67;100.00;57155.34;5081442;28;61831;-85
2022/04/24 02:10:28;;;;;;;;;7.75;7.00;;;;;-146.67;100.00;57155.34;5082737;28;62094;-85
2022/04/24 02:12:53;;;;;;;;;6.25;6.00;;;;;-146.67;100.00;57155.34;5082504;28;61753;-85
2022/04/24 02:15:18;;;;;;;;;9.50;6.50;;;;;-146.67;100.00;57155.34;5082722;28;61813;-85
2022/04/24 02:17:44;;;;;;;;;11.50;5.25;;;;;-146.67;100.00;57155.34;5081913;28;61927;-84
2022/04/24 02:20:10;;;;;;;;;5.75;5.75;;;;;-146.67;100.00;57155.34;5082280;28;61953;-84
2022/04/24 02:22:36;;;;;;;;;11.00;8.25;;;;;-146.67;100.00;57155.34;5082875;28;61785;-84
2022/04/24 02:25:03;;;;;;;;;8.50;6.00;;;;;-146.67;100.00;57155.34;5082495;28;61887;-84
2022/04/24 02:27:28;;;;;;;;;7.75;7.00;;;;;-146.67;100.00;57155.34;5081899;28;62825;-84
2022/04/24 02:29:54;;;;;;;;;6.75;5.25;;;;;-146.67;100.00;57155.34;5082304;28;61831;-83
2022/04/24 02:32:19;;;;;;;;;7.25;6.00;;;;;-146.67;100.00;57155.34;5082527;28;61991;-84
2022/04/24 02:34:45;;;;;;;;;5.00;5.00;;;;;-146.67;100.00;57155.34;5082271;28;62542;-84
2022/04/24 02:37:10;;;;;;;;;10.00;8.25;;;;;-146.67;100.00;57155.34;5081750;28;61836;-84
2022/04/24 02:39:36;;;;;;;;;12.25;8.25;;;;;-146.67;100.00;57155.34;5081862;28;61988;-84
2022/04/24 02:42:02;;;;;;;;;8.00;6.50;;;;;-146.67;100.00;57155.34;5082320;28;62450;-84
2022/04/24 02:44:27;;;;;;;;;8.25;7.50;;;;;-146.67;100.00;57155.34;5082468;28;62513;-84
2022/04/24 02:46:53;;;;;;;;;8.75;7.00;;;;;-146.67;100.00;57155.34;5081495;28;61919;-84
2022/04/24 02:49:18;;;;;;;;;8.50;7.25;;;;;-146.67;100.00;57155.34;5081962;28;62037;-83
2022/04/24 02:51:44;;;;;;;;;10.00;7.25;;;;;-146.67;100.00;57155.34;5082272;28;61781;-85
2022/04/24 02:54:09;;;;;;;;;7.50;7.25;;;;;-146.67;100.00;57155.34;5082139;28;61856;-84
2022/04/24 02:56:35;;;;;;;;;8.00;5.75;;;;;-146.67;100.00;57155.34;5081571;28;62288;-84
2022/04/24 02:59:00;;;;;;;;;8.25;6.50;;;;;-146.67;100.00;57155.34;5081664;28;61907;-83
2022/04/24 03:01:26;;;;;;;;;8.00;7.00;;;;;-146.67;100.00;57155.34;5082311;28;61979;-84
2022/04/24 03:03:51;;;;;;;;;6.50;6.50;;;;;-146.67;100.00;57155.34;5097538;27;62255;-84
2022/04/24 03:06:17;;;;;;;;;13.50;8.00;;;;;-146.67;100.00;57155.34;5096962;27;63552;-84
2022/04/24 03:08:42;;;;;;;;;10.25;9.00;;;;;-146.67;100.00;57155.34;5081569;28;61847;-83
2022/04/24 03:11:08;;;;;;;;;11.25;9.00;;;;;-146.67;100.00;57155.34;5081629;28;62160;-84
2022/04/24 03:13:33;;;;;;;;;7.00;7.00;;;;;-146.67;100.00;57155.34;5082099;28;61864;-84
2022/04/24 03:15:59;;;;;;;;;10.25;8.75;;;;;-146.67;100.00;57155.34;5081103;27;61778;-84
2022/04/24 03:18:24;;;;;;;;;9.75;8.25;;;;;-146.67;100.00;57155.34;5080249;28;61751;-84
2022/04/24 03:20:50;;;;;;;;;11.75;10.00;;;;;-146.67;100.00;57155.34;5082239;28;62087;-84
2022/04/24 03:23:15;;;;;;;;;14.50;10.75;;;;;-146.67;100.00;57155.34;5085213;28;62127;-84
2022/04/24 03:25:41;;;;;;;;;11.50;7.25;;;;;-146.67;100.00;57155.34;5084719;28;61832;-84
2022/04/24 03:28:09;;;;;;;;;11.50;7.25;;;;;-146.67;100.00;57155.34;5085082;28;62256;-84
2022/04/24 03:30:37;;;;;;;;;18.50;9.75;;;;;-146.67;100.00;57155.34;5101142;27;61958;-83
2022/04/24 03:33:03;;;;;;;;;14.00;13.50;;;;;-146.67;100.00;57155.34;5085113;27;61950;-84
2022/04/24 03:35:28;;;;;;;;;13.75;11.00;;;;;-146.67;100.00;57155.34;5100095;27;62978;-84
2022/04/24 03:37:54;;;;;;;;;14.25;10.25;;;;;-146.67;100.00;57155.34;5084967;28;61766;-83
2022/04/24 03:40:20;;;;;;;;;15.00;10.00;;;;;-146.67;100.00;57155.34;5084951;28;61933;-84
2022/04/24 03:42:46;;;;;;;;;15.00;9.25;;;;;-146.67;100.00;57155.34;5085312;28;61883;-83
2022/04/24 03:45:12;;;;;;;;;11.25;8.75;;;;;-146.67;100.00;57155.34;5083994;28;63369;-84
2022/04/24 03:47:38;;;;;;;;;13.00;10.25;;;;;-146.67;100.00;57155.34;5084906;28;61955;-84
2022/04/24 03:50:05;;;;;;;;;11.50;9.75;;;;;-146.67;100.00;57155.34;5084874;28;61806;-84
2022/04/24 03:52:31;;;;;;;;;13.25;10.25;;;;;-146.67;100.00;57155.34;5085233;28;62022;-84
2022/04/24 03:54:57;;;;;;;;;11.50;8.75;;;;;-146.67;100.00;57155.34;5099777;27;64790;-84
2022/04/24 03:57:22;;;;;;;;;13.25;12.00;;;;;-146.67;100.00;57155.34;5084309;28;62052;-84
2022/04/24 03:59:47;;;;;;;;;12.25;11.25;;;;;-146.67;100.00;57155.34;5100680;27;62022;-84
2022/04/24 04:02:13;;;;;;;;;12.25;10.50;;;;;-146.67;100.00;57155.34;5084391;28;61948;-84
2022/04/24 04:04:38;;;;;;;;;14.25;11.50;;;;;-146.67;100.00;57155.34;5099601;27;63894;-84
2022/04/24 04:07:04;;;;;;;;;16.75;11.75;;;;;-146.67;100.00;57155.34;5084185;28;61936;-84
2022/04/24 04:09:30;;;;;;;;;13.25;13.00;;;;;-146.67;100.00;57155.34;5084523;28;61763;-84
2022/04/24 04:11:56;;;;;;;;;15.25;12.75;;;;;-146.67;100.00;57155.34;5084974;28;62148;-84
2022/04/24 04:14:22;;;;;;;;;15.00;13.50;;;;;-146.67;100.00;57155.34;5083474;28;62817;-82
2022/04/24 04:16:48;;;;;;;;;11.75;11.50;;;;;-146.67;100.00;57155.34;5084496;28;61837;-84
2022/04/24 04:19:14;;;;;;;;;20.75;12.00;;;;;-146.67;100.00;57155.34;5084196;28;62154;-84
2022/04/24 04:21:39;;;;;;;;;15.75;10.75;;;;;-146.67;100.00;57155.34;5100350;27;62056;-84
2022/04/24 04:24:06;;;;;;;;;19.00;13.25;;;;;-146.67;100.00;57155.34;5083885;28;62731;-85
2022/04/24 04:26:32;;;;;;;;;16.00;12.25;;;;;-146.67;100.00;57155.34;5084343;28;61687;-84
2022/04/24 04:28:57;;;;;;;;;17.75;11.75;;;;;-146.67;100.00;57155.34;5084076;28;62370;-84
2022/04/24 04:31:23;;;;;;;;;18.00;13.00;;;;;-146.67;100.00;57155.34;5084237;28;61718;-85
2022/04/24 04:33:48;;;;;;;;;13.00;8.75;;;;;-146.67;100.00;57155.34;5082355;28;61832;-82
2022/04/24 04:36:14;;;;;;;;;12.25;11.25;;;;;-146.67;100.00;57155.34;5083477;28;61806;-84
2022/04/24 04:38:40;;;;;;;;;15.25;9.50;;;;;-146.67;100.00;57155.34;5099716;27;62168;-83
2022/04/24 04:41:07;;;;;;;;;13.50;11.75;;;;;-146.67;100.00;57155.34;5084443;28;61743;-84
2022/04/24 04:43:35;;;;;;;;;11.50;10.75;;;;;-146.67;100.00;57155.34;5098984;27;63380;-83
2022/04/24 04:46:04;;;;;;;;;12.25;9.00;;;;;-146.67;100.00;57155.34;5096460;27;62073;-84
2022/04/24 04:48:30;;;;;;;;;14.75;11.25;;;;;-146.67;100.00;57155.34;5063273;28;61795;-83
2022/04/24 04:50:55;;;;;;;;;19.00;13.75;;;;;-146.67;100.00;57155.34;5063566;28;61780;-84
2022/04/24 04:53:22;;;;;;;;;16.75;12.75;;;;;-146.67;100.00;57155.34;5061782;28;64638;-84
2022/04/24 04:55:48;;;;;;;;;15.50;10.50;;;;;-146.67;100.00;57155.34;5062129;28;61706;-83
2022/04/24 04:58:13;;;;;;;;;14.00;12.00;;;;;-146.67;100.00;57155.34;5072489;28;61864;-84
2022/04/24 05:00:39;;;;;;;;;14.25;12.75;;;;;-146.67;100.00;57155.34;5099595;27;61791;-84
2022/04/24 05:03:05;;;;;;;;;13.50;12.25;;;;;-146.67;100.00;57155.34;5083313;28;63156;-84
2022/04/24 05:05:30;;;;;;;;;19.25;14.50;;;;;-146.67;100.00;57155.34;5083292;28;61816;-82
2022/04/24 05:07:55;;;;;;;;;11.00;11.00;;;;;-146.67;100.00;57155.34;5083532;28;61960;-85
2022/04/24 05:10:21;;;;;;;;;15.25;9.50;;;;;-146.67;100.00;57155.34;5083640;28;61750;-85
2022/04/24 05:12:46;;;;;;;;;15.50;10.50;;;;;-146.67;100.00;57155.34;5082714;28;61790;-86
2022/04/24 05:15:13;;;;;;;;;14.50;13.25;;;;;-146.67;100.00;57155.34;5083614;28;61797;-85
2022/04/24 05:17:40;;;;;;;;;15.50;11.25;;;;;-146.67;100.00;57155.34;5083290;28;61794;-85
2022/04/24 05:20:08;;;;;;;;;14.25;11.50;;;;;-146.67;100.00;57155.34;5099161;27;61808;-82
2022/04/24 05:22:33;;;;;;;;;14.75;10.00;;;;;-146.67;100.00;57155.34;5082480;28;62853;-79
2022/04/24 05:24:59;;;;;;;;;9.50;9.25;;;;;-146.67;100.00;57155.34;5083393;28;61845;-83
2022/04/24 05:27:24;;;;;;;;;12.25;11.00;;;;;-146.67;100.00;57155.34;5082955;28;62004;-83
2022/04/24 05:29:50;;;;;;;;;17.25;12.00;;;;;-146.67;100.00;57155.34;5098226;27;61907;-83
2022/04/24 05:32:16;;;;;;;;;14.75;12.25;;;;;-146.67;100.00;57155.34;5082712;28;61855;-83
2022/04/24 05:34:42;;;;;;;;;14.00;12.25;;;;;-146.67;100.00;57155.34;5082987;27;61739;-83
2022/04/24 05:37:09;;;;;;;;;5.50;3.75;;;;;-146.67;100.00;57155.34;5098963;27;61902;-83
2022/04/24 05:39:35;;;;;;;;;10.50;7.50;;;;;-146.67;100.00;57155.34;5082468;28;61768;-83
2022/04/24 05:42:01;;;;;;;;;12.50;11.25;;;;;-146.67;100.00;57155.34;5082421;28;61774;-83
2022/04/24 05:44:27;;;;;;;;;18.25;10.75;;;;;-146.67;100.00;57155.34;5082412;28;61823;-83
2022/04/24 05:46:52;;;;;;;;;13.25;10.25;;;;;-146.67;100.00;57155.34;5083275;28;61870;-83
2022/04/24 05:49:18;;;;;;;;;15.25;9.75;;;;;-146.67;100.00;57155.34;5081855;28;62024;-82
2022/04/24 05:51:43;;;;;;;;;12.50;10.50;;;;;-146.67;100.00;57155.34;5097844;27;63644;-83
2022/04/24 05:54:10;;;;;;;;;12.25;10.00;;;;;-146.67;100.00;57155.34;5090961;27;62252;-78
2022/04/24 05:56:35;;;;;;;;;15.75;14.00;;;;;-146.67;100.00;57155.34;5080708;28;61821;-81
2022/04/24 05:59:02;;;;;;;;;16.75;12.00;;;;;-146.67;100.00;57155.34;5081032;28;61920;-80
2022/04/24 06:01:27;;;;;;;;;13.00;10.25;;;;;-146.67;100.00;57155.34;5082121;27;62863;-86
2022/04/24 06:03:53;;;;;;;;;16.75;11.25;;;;;-146.67;100.00;57155.34;5082698;27;62122;-88
2022/04/24 06:06:18;;;;;;;;;12.50;11.75;;;;;-146.67;100.00;57155.34;5098970;27;62497;-91
2022/04/24 06:08:44;;;;;;;;;14.75;10.00;;;;;-146.67;100.00;57155.34;5098213;27;61776;-87
2022/04/24 06:11:09;;;;;;;;;15.00;10.50;;;;;-146.67;100.00;57155.34;5082027;27;61944;-88
2022/04/24 06:13:35;;;;;;;;;12.25;12.25;;;;;-146.67;100.00;57155.34;5082627;28;62004;-87
2022/04/24 06:16:00;;;;;;;;;8.00;8.00;;;;;-146.67;100.00;57155.34;5083032;27;61755;-88
2022/04/24 06:18:28;;;;;;;;;13.00;8.25;;;;;-146.67;100.00;57155.34;5082976;28;61776;-88
2022/04/24 06:20:53;;;;;;;;;13.50;11.25;;;;;-146.67;100.00;57155.34;5097591;27;64085;-88
2022/04/24 06:23:19;;;;;;;;;14.00;9.75;;;;;-146.67;100.00;57155.34;5082834;27;62098;-88
2022/04/24 06:25:45;;;;;;;;;19.50;13.25;;;;;-146.67;100.00;57155.34;5082687;27;61883;-88
2022/04/24 06:28:10;;;;;;;;;18.50;12.50;;;;;-146.67;100.00;57155.34;5082979;28;61783;-89
2022/04/24 06:30:40;;;;;;;;;13.25;11.25;;;;;-146.67;100.00;57155.34;5082082;27;62588;-89
2022/04/24 06:33:10;;;;;;;;;17.75;9.50;;;;;-146.67;100.00;57155.34;5081653;28;62166;-89
2022/04/24 06:35:36;;;;;;;;;17.25;10.75;;;;;-146.67;100.00;57155.34;5082373;27;61802;-81
2022/04/24 06:38:02;;;;;;;;;13.50;11.50;;;;;-146.67;100.00;57155.34;5082679;27;62335;-80
2022/04/24 06:40:28;;;;;;;;;15.25;13.25;;;;;-146.67;100.00;57155.34;5081291;27;61956;-80
2022/04/24 06:42:56;;;;;;;;;15.00;13.00;;;;;-146.67;100.00;57155.34;5082087;28;62358;-80
2022/04/24 06:45:29;;;;;;;;;12.50;11.25;;;;;-146.67;100.00;57155.34;5082477;27;61839;-80
2022/04/24 06:47:57;;;;;;;;;13.50;11.50;;;;;-146.67;100.00;57155.34;5082362;27;61912;-80
2022/04/24 06:50:24;;;;;;;;;11.75;10.50;;;;;-146.67;100.00;57155.34;5081258;27;62841;-80
2022/04/24 06:53:07;;;;;;;;;13.50;12.25;;;;;-146.67;100.00;57155.34;5080541;28;61811;-80
2022/04/24 06:55:38;;;;;;;;;13.00;10.75;;;;;-146.67;100.00;57155.34;5081636;27;61951;-77
2022/04/24 06:58:05;;;;;;;;;12.75;12.50;;;;;-146.67;100.00;57155.34;5086133;28;61840;-77
2022/04/24 07:00:33;;;;;;;;;17.00;14.75;;;;;-146.67;100.00;57155.34;5070572;28;62170;-77
2022/04/24 07:02:58;;;;;;;;;17.50;13.50;;;;;-146.67;100.00;57155.34;5065176;28;61832;-76
2022/04/24 07:05:27;;;;;;;;;20.00;12.50;;;;;-146.67;100.00;57155.34;5074194;28;62012;-80
2022/04/24 07:07:54;;;;;;;;;16.50;12.75;;;;;-146.67;100.00;57155.34;5083703;27;61987;-81
2022/04/24 07:10:20;;;;;;;;;16.75;16.00;;;;;-146.67;100.00;57155.34;5084239;27;62118;-80
2022/04/24 07:12:51;;;;;;;;;18.50;15.50;;;;;-146.67;100.00;57155.34;5092223;27;61841;-80
2022/04/24 07:15:17;;;;;;;;;20.50;14.00;;;;;-146.67;100.00;57155.34;5085106;28;62174;-80
2022/04/24 07:17:44;;;;;;;;;15.00;14.25;;;;;-146.67;100.00;57155.34;5084764;28;62083;-80
2022/04/24 07:20:11;;;;;;;;;16.50;13.25;;;;;-146.67;100.00;57155.34;5084199;27;62004;-80
2022/04/24 07:22:42;;;;;;;;;23.00;16.75;;;;;-146.67;100.00;57155.34;5083329;28;61949;-80
2022/04/24 07:25:08;;;;;;;;;21.50;16.50;;;;;-146.67;100.00;57155.34;5082697;28;62350;-80
2022/04/24 07:27:33;;;;;;;;;15.75;15.50;;;;;-146.67;100.00;57155.34;5087453;27;61846;-79
2022/04/24 07:29:59;;;;;;;;;21.50;16.25;;;;;-146.67;100.00;57155.34;5092132;27;62011;-80
2022/04/24 07:32:24;;;;;;;;;20.00;16.25;;;;;-146.67;100.00;57155.34;5083517;27;61723;-80
2022/04/24 07:34:49;;;;;;;;;17.00;15.50;;;;;-146.67;100.00;57155.34;5083136;28;62774;-80
2022/04/24 07:37:15;;;;;;;;;17.00;15.00;;;;;-146.67;100.00;57155.34;5085542;27;61714;-80
2022/04/24 07:39:40;;;;;;;;;22.00;18.75;;;;;-146.67;100.00;57155.34;5084007;27;62536;-81
2022/04/24 07:42:06;;;;;;;;;28.75;20.50;;;;;-146.67;100.00;57155.34;5084983;27;61922;-81
2022/04/24 07:44:32;;;;;;;;;22.25;17.75;;;;;-146.67;100.00;57155.34;5085099;28;61711;-81
2022/04/24 07:46:57;;;;;;;;;22.75;18.25;;;;;-146.67;100.00;57155.34;5096955;27;61751;-81
2022/04/24 07:49:22;;;;;;;;;19.00;16.50;;;;;-146.67;100.00;57155.34;5076981;28;62716;-79
2022/04/24 07:51:48;;;;;;;;;21.00;17.50;;;;;-146.67;100.00;57155.34;5083400;27;61757;-86
2022/04/24 07:54:13;;;;;;;;;23.00;18.00;;;;;-146.67;100.00;57155.34;5084507;27;61743;-85
2022/04/24 07:56:39;;;;;;;;;15.25;14.00;;;;;-146.67;100.00;57155.34;5084946;27;62201;-85
2022/04/24 07:59:05;;;;;;;;;25.00;17.75;;;;;-146.67;100.00;57155.34;5083121;28;62592;-85
2022/04/24 08:01:30;;;;;;;;;27.00;19.50;;;;;-146.67;100.00;57155.34;5085413;28;61937;-85
2022/04/24 08:03:55;;;;;;;;;22.25;18.50;;;;;-146.67;100.00;57155.34;5100328;27;62080;-85
2022/04/24 08:06:22;;;;;;;;;25.25;20.25;;;;;-146.67;100.00;57155.34;5084451;27;61750;-82
2022/04/24 08:08:48;;;;;;;;;18.00;15.75;;;;;-146.67;100.00;57155.34;5083287;27;62444;-84
2022/04/24 08:11:13;;;;;;;;;18.25;14.50;;;;;-146.67;100.00;57155.34;5083135;28;61917;-84
2022/04/24 08:13:38;;;;;;;;;22.00;19.50;;;;;-146.67;100.00;57155.34;5083145;28;62182;-84
2022/04/24 08:16:04;;;;;;;;;28.00;21.25;;;;;-146.67;100.00;57155.34;5081177;28;62245;-85
2022/04/24 08:18:30;;;;;;;;;27.00;19.50;;;;;-146.67;100.00;57155.34;5083080;27;61830;-85
2022/04/24 08:20:55;;;;;;;;;19.25;15.50;;;;;-146.67;100.00;57155.34;5081874;28;61816;-85
2022/04/24 08:23:21;;;;;;;;;23.75;20.25;;;;;-146.67;100.00;57155.34;5097948;27;61800;-85
2022/04/24 08:25:47;;;;;;;;;21.50;17.50;;;;;-146.67;100.00;57155.34;5106741;27;61901;-85
2022/04/24 08:28:14;;;;;;;;;24.00;20.00;;;;;-146.67;100.00;57155.34;5080386;28;64120;-85
2022/04/24 08:30:42;;;;;;;;;22.00;17.50;;;;;-146.67;100.00;57155.34;5082746;27;61958;-85
2022/04/24 08:33:09;;;;;;;;;18.50;16.00;;;;;-146.67;100.00;57155.34;5082527;27;62270;-85
2022/04/24 08:35:34;;;;;;;;;18.25;13.75;;;;;-146.67;100.00;57155.34;5083640;28;61906;-85
2022/04/24 08:38:00;;;;;;;;;19.25;15.75;;;;;-146.67;100.00;57155.34;5082769;27;61934;-92
2022/04/24 08:40:25;;;;;;;;;18.00;16.50;;;;;-146.67;100.00;57155.34;5083793;27;62021;-90
2022/04/24 08:42:54;;;;;;;;;21.75;18.50;;;;;-146.67;100.00;57155.34;5099418;27;61823;-90
2022/04/24 08:45:24;;;;;;;;;27.25;22.25;;;;;-146.67;100.00;57155.34;5081046;28;61914;-83
2022/04/24 08:47:51;;;;;;;;;16.25;14.25;;;;;-146.67;100.00;57155.34;5083737;27;61992;-91
2022/04/24 08:50:18;;;;;;;;;20.50;14.50;;;;;-146.67;100.00;57155.34;5098892;27;62142;-80
2022/04/24 08:52:44;;;;;;;;;24.00;17.50;;;;;-146.67;100.00;57155.34;5082870;28;61913;-86
2022/04/24 08:55:10;;;;;;;;;23.25;17.75;;;;;-146.67;100.00;57155.34;5080176;27;61998;-83
2022/04/24 08:57:36;;;;;;;;;24.75;18.75;;;;;-146.67;100.00;57155.34;5081127;27;62144;-82
2022/04/24 09:00:03;;;;;;;;;22.50;20.25;;;;;-146.67;100.00;57155.34;5080134;28;61727;-83
2022/04/24 09:03:10;;;;;;;;;18.50;16.00;;;;;-146.67;100.00;57155.34;5082006;28;61889;-84
2022/04/24 09:05:50;;;;;;;;;18.75;18.75;;;;;-146.67;100.00;57155.34;5040813;28;62284;-85
2022/04/24 09:09:23;;;;;;;;;22.25;16.75;;;;;-146.67;100.00;57155.34;5023502;28;63855;-85
2022/04/24 09:16:18;;;;;;;;;21.75;14.50;;;;;-146.67;100.00;57155.34;5041732;28;62017;-84
2022/04/24 09:29:10;;;;;;;;;19.25;16.50;;;;;-146.67;100.00;57155.34;4979658;28;61972;-85
2022/04/24 09:39:11;;;;;;;;;19.00;16.50;;;;;-146.67;100.00;57155.34;4881783;29;61990;-83
2022/04/24 09:44:59;;;;;;;;;27.25;18.75;;;;;-146.67;100.00;57155.34;4903018;28;62347;-82
2022/04/24 09:47:26;;;;;;;;;20.25;16.75;;;;;-146.67;100.00;57155.34;4899503;28;63748;-81
2022/04/24 09:49:53;;;;;;;;;24.25;16.00;;;;;-146.67;100.00;57155.34;4877100;29;61865;-82
2022/04/24 09:52:23;;;;;;;;;21.25;18.25;;;;;-146.67;100.00;57155.34;4891169;28;61960;-81
2022/04/24 09:54:51;;;;;;;;;23.00;17.50;;;;;-146.67;100.00;57155.34;4902728;29;62278;-82
2022/04/24 09:57:18;;;;;;;;;26.75;18.50;;;;;-146.67;100.00;57155.34;4880976;29;64898;-80
2022/04/24 09:59:46;;;;;;;;;20.50;17.00;;;;;-146.67;100.00;57155.34;4894639;29;61958;-83
2022/04/24 10:02:14;;;;;;;;;14.00;13.50;;;;;-146.67;100.00;57155.34;4879319;29;61817;-83
2022/04/24 10:04:40;;;;;;;;;21.75;18.50;;;;;-146.67;100.00;57155.34;4892287;28;62010;-82
2022/04/24 10:07:09;;;;;;;;;16.00;11.50;;;;;-146.67;100.00;57155.34;4876722;29;64641;-83
2022/04/24 10:09:36;;;;;;;;;22.50;17.00;;;;;-146.67;100.00;57155.34;4890237;29;62163;-83
2022/04/24 10:12:09;;;;;;;;;28.00;16.25;;;;;-146.67;100.00;57155.34;4900706;28;62009;-84
2022/04/24 10:14:43;;;;;;;;;16.25;13.50;;;;;-146.67;100.00;57155.34;4894342;29;62181;-83
2022/04/24 10:17:46;;;;;;;;;17.25;12.00;;;;;-146.67;100.00;57155.34;4972592;28;62920;-82
2022/04/24 10:20:44;;;;;;;;;19.25;17.50;;;;;-146.67;100.00;57155.34;5015802;28;62140;-84
2022/04/24 10:23:11;;;;;;;;;18.50;10.50;;;;;-146.67;100.00;57155.34;5049511;28;62080;-84
2022/04/24 10:25:44;;;;;;;;;23.75;20.00;;;;;-146.67;100.00;57155.34;5094215;27;61922;-88
2022/04/24 10:28:18;;;;;;;;;17.00;14.00;;;;;-146.67;100.00;57155.34;5075415;28;65296;-82
2022/04/24 10:30:57;;;;;;;;;18.75;15.25;;;;;-146.67;100.00;57155.34;5081734;27;61908;-83
2022/04/24 10:33:26;;;;;;;;;21.25;15.00;;;;;-146.67;100.00;57155.34;5082095;27;61865;-83
2022/04/24 10:36:02;;;;;;;;;14.50;14.50;;;;;-146.67;100.00;57155.34;5082042;27;61912;-83
2022/04/24 10:38:30;;;;;;;;;19.50;17.50;;;;;-146.67;100.00;57155.34;5090709;27;64920;-82
2022/04/24 10:40:56;;;;;;;;;19.00;14.25;;;;;-146.67;100.00;57155.34;5082006;27;62113;-83
2022/04/24 10:43:23;;;;;;;;;19.50;17.50;;;;;-146.67;100.00;57155.34;5081388;27;62116;-82
2022/04/24 10:45:49;;;;;;;;;25.50;18.25;;;;;-146.67;100.00;57155.34;5082562;27;62020;-84
2022/04/24 10:48:15;;;;;;;;;19.00;16.75;;;;;-146.67;100.00;57155.34;5104572;27;65223;-84
2022/04/24 10:50:47;;;;;;;;;18.25;15.25;;;;;-146.67;100.00;57155.34;5081160;28;61785;-82
2022/04/24 10:53:13;;;;;;;;;19.25;17.75;;;;;-146.67;100.00;57155.34;5088640;27;61895;-83
2022/04/24 10:55:39;;;;;;;;;22.00;18.00;;;;;-146.67;100.00;57155.34;5080206;28;61867;-83
2022/04/24 10:58:05;;;;;;;;;18.25;15.50;;;;;-146.67;100.00;57155.34;5080843;28;62293;-83
2022/04/24 11:00:34;;;;;;;;;20.25;17.50;;;;;-146.67;100.00;57155.34;5079067;27;62044;-83
2022/04/24 11:03:10;;;;;;;;;16.00;13.75;;;;;-146.67;100.00;57155.34;5078910;28;61818;-83
2022/04/24 11:05:37;;;;;;;;;15.75;12.50;;;;;-146.67;100.00;57155.34;5078046;28;62232;-82
2022/04/24 11:08:04;;;;;;;;;18.25;14.75;;;;;-146.67;100.00;57155.34;5079178;27;61893;-84
2022/04/24 11:10:37;;;;;;;;;19.75;14.75;;;;;-146.67;100.00;57155.34;5104824;27;62135;-83
2022/04/24 11:13:02;;;;;;;;;7.50;2.00;;;;;-146.67;100.00;57155.34;5111874;27;62012;-82
2022/04/24 11:15:28;;;;;;;;;15.25;14.00;;;;;-146.67;100.00;57155.34;5080229;28;62194;-82
2022/04/24 11:17:54;;;;;;;;;16.75;14.00;;;;;-146.67;100.00;57155.34;5095946;27;64841;-82
2022/04/24 11:20:19;;;;;;;;;18.25;12.00;;;;;-146.67;100.00;57155.34;5080919;27;62348;-83
2022/04/24 11:22:46;;;;;;;;;15.50;14.25;;;;;-146.67;100.00;57155.34;5080311;27;62349;-83